RJNG(METAR)
03/23 14:28
RJNG 230528Z 31013KT 280V350 9999 FEW035 BKN200 15/M06 Q1014
RMK 1CU035 A2996=
戻る
トップページへ戻る
IMOC Co,.Ltd.